Time;durP1;ratioP1;P1;durP2;ratioP2;P2;SDS_P1;SDS_P2;PMS_P1;PMS_P2;Temp;Humidity;BMP_temperature;BMP_pressure;BME280_temperature;BME280_humidity;BME280_pressure;Samples;Min_cycle;Max_cycle;Signal;HPM_P1;HPM_P2
2022/05/03 00:02:09;;;;;;;;;44.00;38.00;;;;;15.43;45.40;100991.50;5074562;28;45441;-61
2022/05/03 00:04:59;;;;;;;;;39.25;34.25;;;;;15.32;46.43;100984.09;5061651;28;45433;-62
2022/05/03 00:07:50;;;;;;;;;40.33;36.00;;;;;15.37;45.35;100981.22;5053988;28;45407;-61
2022/05/03 00:10:33;;;;;;;;;37.33;34.00;;;;;15.38;45.67;100975.81;5040813;28;45411;-61
2022/05/03 00:13:05;;;;;;;;;44.75;37.00;;;;;15.34;45.29;100981.34;5074792;27;45858;-61
2022/05/03 00:15:34;;;;;;;;;42.33;36.33;;;;;15.19;46.27;100951.16;5064297;28;45482;-61
2022/05/03 00:18:05;;;;;;;;;37.33;32.00;;;;;15.33;46.27;100963.72;5061073;28;45441;-61
2022/05/03 00:20:32;;;;;;;;;41.25;35.25;;;;;15.37;45.61;100968.81;5076162;27;45446;-62
2022/05/03 00:22:59;;;;;;;;;39.00;34.33;;;;;15.43;45.59;100960.56;5057352;28;45410;-62
2022/05/03 00:25:25;;;;;;;;;36.67;33.33;;;;;15.34;45.60;100965.44;5059784;28;45528;-61
2022/05/03 00:27:51;;;;;;;;;44.00;38.50;;;;;15.34;45.28;100962.78;5060723;28;45378;-61
2022/05/03 00:30:17;;;;;;;;;44.67;37.00;;;;;15.34;45.19;100966.31;5061428;28;45434;-61
2022/05/03 00:32:43;;;;;;;;;41.67;36.00;;;;;15.34;45.69;100965.44;5070193;28;45767;-62
2022/05/03 00:35:09;;;;;;;;;39.33;34.00;;;;;15.28;45.82;100961.31;5070291;28;45453;-61
2022/05/03 00:37:36;;;;;;;;;45.67;37.33;;;;;15.24;45.91;100950.00;5058744;28;46008;-61
2022/05/03 00:40:03;;;;;;;;;40.00;36.00;;;;;15.18;46.05;100960.91;5064927;28;45493;-61
2022/05/03 00:42:40;;;;;;;;;46.50;36.50;;;;;15.11;45.60;100959.47;5073819;28;45504;-61
2022/05/03 00:45:50;;;;;;;;;39.00;34.00;;;;;15.04;45.69;100955.41;5077927;28;45434;-61
2022/05/03 00:48:34;;;;;;;;;38.50;35.25;;;;;15.06;46.02;100955.34;5028943;28;45549;-61
2022/05/03 00:51:10;;;;;;;;;37.75;34.00;;;;;15.04;46.10;100958.06;5054335;28;45796;-60
2022/05/03 00:54:06;;;;;;;;;35.67;34.00;;;;;15.03;46.24;100954.56;5071679;28;45548;-61
2022/05/03 00:57:06;;;;;;;;;44.67;37.67;;;;;15.05;45.69;100957.13;5077742;28;45529;-61
2022/05/03 01:00:00;;;;;;;;;46.50;38.00;;;;;15.01;46.54;100950.25;5077841;28;46281;-61
2022/05/03 01:02:56;;;;;;;;;40.75;35.50;;;;;15.07;45.51;100955.28;5078368;28;45451;-61
2022/05/03 01:05:54;;;;;;;;;45.00;37.33;;;;;15.10;46.18;100946.28;5076067;27;45568;-61
2022/05/03 01:09:05;;;;;;;;;43.00;38.00;;;;;15.11;46.09;100958.63;5068817;28;45419;-60
2022/05/03 01:11:50;;;;;;;;;44.00;35.25;;;;;15.07;46.27;100952.63;5076338;28;45417;-60
2022/05/03 01:14:35;;;;;;;;;44.67;37.67;;;;;15.11;45.99;100951.53;5077871;28;45380;-62
2022/05/03 01:17:10;;;;;;;;;41.67;35.00;;;;;15.05;45.12;100941.25;5078312;27;45323;-61
2022/05/03 01:20:04;;;;;;;;;35.67;34.00;;;;;15.04;45.77;100950.09;5065235;28;45601;-61
2022/05/03 01:22:35;;;;;;;;;42.00;35.75;;;;;15.07;45.85;100950.00;5076093;27;45816;-61
2022/05/03 01:25:16;;;;;;;;;47.75;39.25;;;;;15.00;46.10;100946.75;5068229;27;45456;-61
2022/05/03 01:28:02;;;;;;;;;33.67;32.00;;;;;14.99;45.77;100952.13;5061017;28;45541;-62
2022/05/03 01:30:30;;;;;;;;;35.75;34.00;;;;;14.97;45.89;100946.06;5044481;28;45677;-61
2022/05/03 01:33:07;;;;;;;;;40.25;36.00;;;;;14.92;45.85;100937.47;5068307;27;45586;-61
2022/05/03 01:35:39;;;;;;;;;40.50;35.75;;;;;15.00;46.08;100936.16;5068666;28;45423;-62
2022/05/03 01:38:30;;;;;;;;;43.00;36.00;;;;;14.89;45.78;100921.72;5062118;27;45513;-60
2022/05/03 01:41:19;;;;;;;;;41.67;35.00;;;;;14.92;45.85;100943.63;5057787;28;45530;-61
2022/05/03 01:43:50;;;;;;;;;41.25;37.25;;;;;14.92;46.29;100938.31;5057557;28;45418;-61
2022/05/03 01:46:20;;;;;;;;;37.50;35.00;;;;;14.91;46.26;100935.72;5057680;28;45337;-61
2022/05/03 01:52:31;;;;;;;;;43.50;35.75;;;;;14.87;45.81;100935.03;5057585;28;45409;-61
2022/05/03 01:55:18;;;;;;;;;47.00;37.75;;;;;14.91;46.47;100936.63;5055661;28;47232;-61
2022/05/03 01:58:03;;;;;;;;;37.67;34.00;;;;;14.88;45.69;100930.59;5071688;28;45393;-61
2022/05/03 02:00:35;;;;;;;;;40.50;35.00;;;;;14.88;45.92;100930.59;5075289;28;45769;-61
2022/05/03 02:03:27;;;;;;;;;37.33;35.00;;;;;14.86;46.33;100927.19;5062192;28;45406;-61
2022/05/03 02:05:53;;;;;;;;;40.33;35.67;;;;;14.85;46.51;100922.78;5057991;28;45549;-63
2022/05/03 02:08:23;;;;;;;;;40.00;36.00;;;;;14.86;45.83;100924.53;5077280;28;45427;-61
2022/05/03 02:11:04;;;;;;;;;34.67;33.33;;;;;14.87;45.51;100924.44;5077914;28;45476;-62
2022/05/03 02:17:00;;;;;;;;;44.25;37.25;;;;;14.89;46.13;100927.03;5077560;28;45380;-60
2022/05/03 02:19:44;;;;;;;;;35.00;33.50;;;;;14.90;45.71;100934.88;5077509;27;45357;-61
2022/05/03 02:22:28;;;;;;;;;36.33;34.00;;;;;14.80;45.96;100929.19;5077819;27;45476;-60
2022/05/03 02:25:05;;;;;;;;;38.33;34.67;;;;;14.83;46.25;100935.25;5062528;28;45327;-60
2022/05/03 02:27:31;;;;;;;;;42.33;34.00;;;;;14.84;46.21;100935.19;5057434;28;46164;-61
2022/05/03 02:29:58;;;;;;;;;36.00;34.00;;;;;14.82;45.88;100933.53;5056068;28;45444;-61
2022/05/03 02:32:54;;;;;;;;;36.33;32.33;;;;;14.67;46.35;100936.00;5057114;28;45396;-60
2022/05/03 02:35:24;;;;;;;;;31.00;30.67;;;;;14.60;45.94;100937.19;5070207;28;45467;-61
2022/05/03 02:37:55;;;;;;;;;40.67;33.67;;;;;14.63;46.01;100936.19;5075977;28;45418;-62
2022/05/03 02:40:25;;;;;;;;;44.25;35.25;;;;;14.60;45.88;100939.84;5076234;28;45425;-62
2022/05/03 02:42:51;;;;;;;;;40.00;35.00;;;;;14.50;46.31;100936.72;5077263;28;45390;-62
2022/05/03 02:45:18;;;;;;;;;40.00;34.00;;;;;14.46;46.53;100934.31;5077358;28;45450;-62
2022/05/03 02:47:43;;;;;;;;;37.75;34.00;;;;;14.44;46.75;100937.00;5075870;28;45350;-62
2022/05/03 02:50:13;;;;;;;;;35.00;33.67;;;;;14.48;46.31;100938.59;5077014;28;45395;-62
2022/05/03 02:53:16;;;;;;;;;36.33;32.00;;;;;14.54;46.05;100933.06;5068037;28;45485;-63
2022/05/03 02:55:54;;;;;;;;;33.33;31.67;;;;;14.54;45.99;100933.06;5056700;28;45403;-60
2022/05/03 02:58:53;;;;;;;;;34.67;33.33;;;;;14.51;46.47;100933.16;5071427;28;47192;-60
2022/05/03 03:01:56;;;;;;;;;39.00;33.33;;;;;14.42;45.87;100933.56;5061690;28;45395;-61
2022/05/03 03:04:38;;;;;;;;;40.33;34.00;;;;;14.35;47.21;100937.44;5076524;27;45452;-61
2022/05/03 03:07:06;;;;;;;;;44.25;38.75;;;;;14.31;46.98;100931.41;5065586;28;45284;-62
2022/05/03 03:09:43;;;;;;;;;36.50;32.25;;;;;14.18;47.12;100927.59;5072264;28;45988;-62
2022/05/03 03:12:19;;;;;;;;;44.00;37.67;;;;;14.13;47.21;100938.41;5056397;28;45493;-62
2022/05/03 03:14:46;;;;;;;;;38.33;33.67;;;;;14.17;47.24;100927.69;5054883;28;45422;-61
2022/05/03 03:17:20;;;;;;;;;40.00;34.33;;;;;14.17;47.35;100927.69;5060919;27;45537;-61
2022/05/03 03:19:51;;;;;;;;;41.75;34.00;;;;;14.16;46.78;100937.44;5056213;28;46074;-61
2022/05/03 03:22:23;;;;;;;;;41.25;34.50;;;;;14.12;47.41;100941.13;5057731;28;45425;-61
2022/05/03 03:24:52;;;;;;;;;37.75;34.25;;;;;14.09;47.70;100928.03;5072024;27;45570;-61
2022/05/03 03:27:21;;;;;;;;;37.50;34.00;;;;;14.10;47.22;100933.28;5072079;28;45493;-61
2022/05/03 03:29:51;;;;;;;;;38.25;35.00;;;;;14.12;47.24;100936.69;5070328;28;46218;-62
2022/05/03 03:32:18;;;;;;;;;42.75;38.00;;;;;14.11;47.00;100928.84;5056137;28;45337;-61
2022/05/03 03:34:47;;;;;;;;;39.25;35.75;;;;;14.16;47.28;100929.50;5060160;28;45473;-61
2022/05/03 03:37:16;;;;;;;;;34.50;33.00;;;;;14.10;47.29;100927.09;5076188;27;45583;-61
2022/05/03 03:39:41;;;;;;;;;40.50;36.25;;;;;14.10;47.08;100927.09;5073461;27;45622;-61
2022/05/03 03:42:07;;;;;;;;;33.00;31.67;;;;;14.12;47.30;100926.09;5062335;28;45342;-62
2022/05/03 03:44:33;;;;;;;;;39.50;35.50;;;;;14.14;47.22;100921.59;5075548;28;45433;-61
2022/05/03 03:47:01;;;;;;;;;35.00;32.00;;;;;14.15;47.40;100922.47;5072745;28;45438;-61
2022/05/03 03:49:30;;;;;;;;;46.50;35.50;;;;;14.20;46.87;100928.41;5073807;27;46200;-61
2022/05/03 03:51:57;;;;;;;;;34.33;31.00;;;;;14.28;46.44;100920.97;5073826;28;45382;-62
2022/05/03 03:54:23;;;;;;;;;35.25;32.00;;;;;14.26;46.91;100916.69;5074527;27;45504;-62
2022/05/03 03:56:50;;;;;;;;;37.67;32.67;;;;;14.28;46.99;100918.34;5075925;28;45416;-62
2022/05/03 03:59:16;;;;;;;;;36.00;33.33;;;;;14.28;47.07;100914.84;5075797;27;45445;-62
2022/05/03 04:01:43;;;;;;;;;33.50;31.75;;;;;14.33;46.75;100916.34;5074174;27;45348;-61
2022/05/03 04:04:12;;;;;;;;;38.25;31.25;;;;;14.29;46.91;100927.13;5075710;28;45437;-62
2022/05/03 04:06:38;;;;;;;;;39.00;34.75;;;;;14.27;46.87;100927.22;5062959;28;45389;-61
2022/05/03 04:09:04;;;;;;;;;40.75;34.00;;;;;14.24;47.05;100931.75;5066075;28;46141;-64
2022/05/03 04:11:42;;;;;;;;;38.33;34.33;;;;;14.20;46.73;100925.75;5073386;27;45426;-61
2022/05/03 04:14:07;;;;;;;;;35.25;34.00;;;;;14.22;46.53;100921.25;5075559;28;45519;-61
2022/05/03 04:16:33;;;;;;;;;40.75;35.50;;;;;14.09;46.77;100918.31;5059516;28;45627;-62
2022/05/03 04:18:58;;;;;;;;;44.50;36.00;;;;;14.11;46.98;100923.53;5053651;28;47057;-60
2022/05/03 04:21:23;;;;;;;;;37.50;34.25;;;;;14.15;46.84;100928.59;5066292;28;51173;-63
2022/05/03 04:23:49;;;;;;;;;43.00;34.75;;;;;14.10;47.25;100927.09;5055581;28;45348;-61
2022/05/03 04:26:14;;;;;;;;;30.33;30.33;;;;;14.12;47.28;100927.91;5055485;28;45549;-61
2022/05/03 04:28:40;;;;;;;;;38.25;33.50;;;;;14.15;47.42;100928.59;5064902;28;46376;-61
2022/05/03 04:31:06;;;;;;;;;41.75;37.25;;;;;14.25;46.87;100937.00;5075642;28;45419;-61
2022/05/03 04:33:31;;;;;;;;;33.50;31.75;;;;;14.19;46.99;100921.41;5075935;28;45347;-61
2022/05/03 04:35:57;;;;;;;;;43.75;36.00;;;;;14.26;46.84;100935.19;5073373;28;45390;-61
2022/05/03 04:38:23;;;;;;;;;40.00;35.50;;;;;14.24;46.43;100931.75;5074347;27;45529;-61
2022/05/03 04:40:49;;;;;;;;;37.00;32.75;;;;;14.27;46.38;100921.91;5075869;28;45395;-61
2022/05/03 04:43:16;;;;;;;;;47.00;40.00;;;;;14.29;46.76;100935.06;5075674;28;45438;-62
2022/05/03 04:45:41;;;;;;;;;42.50;37.50;;;;;14.29;46.96;100941.25;5075645;28;45547;-62
2022/05/03 04:48:07;;;;;;;;;37.00;31.25;;;;;14.25;46.81;100930.84;5072333;28;46131;-62
2022/05/03 04:50:34;;;;;;;;;40.00;34.50;;;;;14.23;46.96;100928.25;5059127;28;45673;-60
2022/05/03 04:53:03;;;;;;;;;41.25;34.75;;;;;14.23;46.74;100922.13;5073439;27;45407;-61
2022/05/03 04:55:28;;;;;;;;;39.67;36.00;;;;;14.22;46.97;100931.84;5075346;28;45378;-62
2022/05/03 04:57:54;;;;;;;;;41.00;37.25;;;;;14.19;46.54;100937.28;5067333;28;47512;-61
2022/05/03 05:00:19;;;;;;;;;38.75;33.75;;;;;14.18;47.20;100932.91;5069988;28;45390;-61
2022/05/03 05:02:44;;;;;;;;;38.75;34.00;;;;;14.23;46.92;100932.69;5062489;28;45567;-60
2022/05/03 05:05:10;;;;;;;;;41.25;36.50;;;;;14.20;46.78;100931.06;5061952;28;45480;-60
2022/05/03 05:07:36;;;;;;;;;40.25;35.25;;;;;14.21;47.04;100939.84;5073837;28;45951;-61
2022/05/03 05:12:46;;;;;;;;;41.50;37.25;;;;;14.13;47.24;100942.81;5072621;28;45425;-60
2022/05/03 05:15:11;;;;;;;;;42.00;36.00;;;;;14.13;47.28;100941.06;5059832;27;45482;-62
2022/05/03 05:17:37;;;;;;;;;37.25;34.25;;;;;14.16;47.27;100953.28;5093532;27;45517;-62
2022/05/03 05:20:02;;;;;;;;;36.00;32.75;;;;;14.21;46.53;100953.06;5098997;27;45418;-61
2022/05/03 05:22:28;;;;;;;;;43.75;39.00;;;;;14.22;47.01;100953.00;5084654;27;45614;-61
2022/05/03 05:24:53;;;;;;;;;41.00;35.50;;;;;14.24;47.34;100950.28;5068206;27;45559;-60
2022/05/03 05:27:18;;;;;;;;;42.25;34.25;;;;;14.21;47.46;100956.59;5077328;27;46019;-61
2022/05/03 05:29:44;;;;;;;;;41.50;37.50;;;;;14.12;46.99;100957.84;5068117;28;45383;-63
2022/05/03 05:32:09;;;;;;;;;45.50;36.25;;;;;14.18;47.30;100961.16;5058849;28;45415;-60
2022/05/03 05:34:35;;;;;;;;;37.00;32.75;;;;;14.21;47.32;100961.88;5070629;28;45509;-61
2022/05/03 05:37:00;;;;;;;;;38.75;34.25;;;;;14.22;47.58;100968.03;5076886;28;47506;-61
2022/05/03 05:39:26;;;;;;;;;35.25;31.50;;;;;14.17;47.54;100965.59;5076893;28;45425;-62
2022/05/03 05:41:56;;;;;;;;;42.75;36.50;;;;;14.16;47.26;100961.22;5068874;28;45531;-62
2022/05/03 05:44:21;;;;;;;;;49.75;41.25;;;;;14.21;46.90;100971.59;5078216;28;45447;-63
2022/05/03 05:46:47;;;;;;;;;41.25;35.50;;;;;14.12;47.35;100965.78;5077520;28;45413;-61
2022/05/03 05:49:12;;;;;;;;;41.25;36.50;;;;;14.04;47.75;100969.69;5061507;28;46467;-62
2022/05/03 05:51:37;;;;;;;;;42.00;36.25;;;;;14.08;47.42;100966.00;5060867;28;45423;-62
2022/05/03 05:54:04;;;;;;;;;41.75;36.00;;;;;14.10;47.66;100966.78;5071982;28;45651;-62
2022/05/03 05:56:29;;;;;;;;;43.25;37.25;;;;;14.15;47.77;100975.38;5077804;28;46033;-62
2022/05/03 05:58:55;;;;;;;;;38.50;35.00;;;;;14.15;46.93;100970.06;5077628;28;45533;-61
2022/05/03 06:01:25;;;;;;;;;42.75;35.75;;;;;14.17;47.35;100968.22;5072088;28;45462;-61
2022/05/03 06:03:50;;;;;;;;;43.75;36.50;;;;;14.19;47.64;100974.31;5074069;28;45574;-61
2022/05/03 06:06:16;;;;;;;;;42.75;36.00;;;;;14.24;47.43;100979.38;5070927;28;57356;-61
2022/05/03 06:08:41;;;;;;;;;40.00;33.75;;;;;14.23;47.43;100983.81;5057648;28;45462;-61
2022/05/03 06:11:06;;;;;;;;;42.25;35.25;;;;;14.25;47.68;100974.03;5057588;28;45464;-61
2022/05/03 06:13:32;;;;;;;;;36.50;34.50;;;;;14.35;47.60;100987.72;5064585;28;45704;-62
2022/05/03 06:16:08;;;;;;;;;40.00;35.75;;;;;14.33;47.51;100982.50;5076607;28;45445;-61
2022/05/03 06:18:33;;;;;;;;;36.50;30.25;;;;;14.37;47.18;100985.84;5077590;28;45472;-61
2022/05/03 06:21:00;;;;;;;;;45.75;38.25;;;;;14.35;47.42;100993.00;5075966;28;45541;-61
2022/05/03 06:23:25;;;;;;;;;44.25;37.75;;;;;14.24;47.99;100982.03;5062799;28;45601;-61
2022/05/03 06:25:51;;;;;;;;;43.50;36.75;;;;;14.25;47.82;100989.91;5057033;28;50543;-63
2022/05/03 06:28:16;;;;;;;;;39.00;35.25;;;;;14.28;46.93;100988.91;5072280;28;45521;-60
2022/05/03 06:30:41;;;;;;;;;37.75;34.25;;;;;14.27;47.35;100988.06;5077117;28;45426;-62
2022/05/03 06:33:07;;;;;;;;;39.50;35.25;;;;;14.22;47.48;100990.03;5076086;28;45355;-61
2022/05/03 06:35:33;;;;;;;;;41.00;35.67;;;;;14.22;47.90;100984.75;5076972;28;45429;-62
2022/05/03 06:37:58;;;;;;;;;37.50;34.00;;;;;14.25;47.78;100997.84;5076143;28;45339;-61
2022/05/03 06:40:24;;;;;;;;;43.25;37.50;;;;;14.29;47.81;100993.25;5075164;28;45386;-61
2022/05/03 06:42:49;;;;;;;;;48.75;39.50;;;;;14.35;47.19;100998.31;5077169;28;45659;-61
2022/05/03 06:45:14;;;;;;;;;43.00;37.25;;;;;14.32;47.75;100998.44;5075761;28;46083;-61
2022/05/03 06:47:40;;;;;;;;;44.75;39.00;;;;;14.25;48.06;100987.25;5063078;27;45363;-61
2022/05/03 06:50:07;;;;;;;;;39.50;33.25;;;;;14.19;47.73;100987.53;5075142;28;45500;-60
2022/05/03 06:52:36;;;;;;;;;42.00;37.00;;;;;14.23;47.50;100998.84;5057808;28;45502;-61
2022/05/03 06:55:01;;;;;;;;;45.25;36.75;;;;;14.25;48.15;100994.34;5059296;27;46256;-62
2022/05/03 06:57:28;;;;;;;;;46.50;38.25;;;;;14.19;47.94;100989.34;5056346;27;45399;-62
2022/05/03 06:59:53;;;;;;;;;45.00;38.25;;;;;14.25;47.99;100999.63;5073495;28;45509;-62
2022/05/03 07:02:19;;;;;;;;;45.00;38.25;;;;;14.24;47.86;100996.13;5076590;27;45652;-61
2022/05/03 07:04:46;;;;;;;;;45.00;38.25;;;;;14.30;48.02;100998.50;5076378;27;45528;-61
2022/05/03 07:07:11;;;;;;;;;41.50;37.25;;;;;14.28;47.70;100996.84;5076376;27;45499;-62
2022/05/03 07:09:37;;;;;;;;;41.75;36.00;;;;;14.29;47.93;101003.84;5073435;27;45485;-61
2022/05/03 07:12:03;;;;;;;;;39.00;35.75;;;;;14.24;47.81;100997.91;5075352;28;45973;-60
2022/05/03 07:14:28;;;;;;;;;41.50;35.75;;;;;14.22;48.08;101003.28;5073719;28;46623;-61
2022/05/03 07:16:54;;;;;;;;;47.75;39.50;;;;;14.22;47.80;101008.56;5074015;27;45460;-61
2022/05/03 07:24:47;;;;;;;;;45.75;39.50;;;;;14.25;48.09;101011.06;5076067;28;45522;-60
2022/05/03 07:27:13;;;;;;;;;49.75;40.50;;;;;14.24;47.45;101004.06;5076040;28;45412;-63
2022/05/03 07:29:38;;;;;;;;;40.50;36.00;;;;;14.38;47.35;101016.69;5056060;28;45473;-62
2022/05/03 07:32:04;;;;;;;;;43.00;38.00;;;;;14.43;47.75;101013.84;5056712;28;45717;-61
2022/05/03 07:34:30;;;;;;;;;37.75;35.00;;;;;14.49;47.43;101011.78;5066439;28;45413;-61
2022/05/03 07:36:55;;;;;;;;;39.75;33.00;;;;;14.44;47.49;101016.41;5055696;28;45488;-62
2022/05/03 07:39:20;;;;;;;;;47.50;38.00;;;;;14.41;47.44;101021.00;5055868;28;45493;-62
2022/05/03 07:41:46;;;;;;;;;36.00;32.25;;;;;14.40;47.64;101014.84;5058988;28;45483;-62
2022/05/03 07:44:11;;;;;;;;;41.00;35.75;;;;;14.42;47.57;101018.25;5055515;28;45555;-62
2022/05/03 07:46:36;;;;;;;;;37.75;35.00;;;;;14.42;47.38;101015.59;5057213;28;53298;-62
2022/05/03 07:49:02;;;;;;;;;38.25;34.25;;;;;14.47;47.43;101013.63;5057147;28;45391;-62
2022/05/03 07:51:27;;;;;;;;;40.25;35.00;;;;;14.56;47.27;101021.19;5075887;28;45329;-62
2022/05/03 07:53:53;;;;;;;;;43.00;37.00;;;;;14.54;47.08;101001.03;5075494;28;49144;-61
2022/05/03 07:56:18;;;;;;;;;37.75;34.50;;;;;14.56;47.55;101017.66;5062105;28;45410;-61
2022/05/03 07:58:44;;;;;;;;;40.75;35.75;;;;;14.54;47.19;101016.91;5060882;28;45445;-61
2022/05/03 08:01:09;;;;;;;;;38.25;33.50;;;;;14.52;47.45;101024.91;5059541;28;45659;-62
2022/05/03 08:03:34;;;;;;;;;36.33;31.33;;;;;14.51;47.95;101030.25;5064845;28;58058;-61
2022/05/03 08:06:01;;;;;;;;;39.00;35.00;;;;;14.48;47.21;101033.00;5056505;28;45462;-62
2022/05/03 08:08:27;;;;;;;;;41.25;37.00;;;;;14.51;47.38;101027.59;5062996;28;45443;-61
2022/05/03 08:10:52;;;;;;;;;44.00;37.75;;;;;14.46;47.53;101025.16;5075364;28;45428;-61
2022/05/03 08:13:17;;;;;;;;;42.50;36.75;;;;;14.50;47.40;101020.56;5070130;28;45504;-61
2022/05/03 08:15:43;;;;;;;;;34.33;32.67;;;;;14.56;47.20;101025.59;5070323;28;45423;-61
2022/05/03 08:18:08;;;;;;;;;42.50;36.00;;;;;14.63;47.16;101035.00;5075122;28;45652;-61
2022/05/03 08:20:33;;;;;;;;;42.75;35.25;;;;;14.66;47.46;101020.75;5075574;28;45420;-62
2022/05/03 08:22:59;;;;;;;;;39.75;33.50;;;;;14.72;46.98;101028.41;5075443;28;46116;-61
2022/05/03 08:25:25;;;;;;;;;39.00;35.00;;;;;14.76;47.26;101035.31;5072759;28;45595;-62
2022/05/03 08:27:51;;;;;;;;;40.75;34.75;;;;;14.80;46.78;101032.47;5075251;28;45389;-61
2022/05/03 08:30:16;;;;;;;;;41.50;36.50;;;;;14.85;46.65;101032.22;5075384;28;45482;-61
2022/05/03 08:32:41;;;;;;;;;41.25;37.25;;;;;14.83;47.08;101030.56;5074334;28;45961;-62
2022/05/03 08:35:07;;;;;;;;;38.50;34.25;;;;;14.88;46.59;101032.06;5074075;28;45356;-61
2022/05/03 08:43:05;;;;;;;;;34.00;29.00;;;;;14.97;47.15;101030.81;5075650;28;45804;-61
2022/05/03 08:45:32;;;;;;;;;40.67;34.67;;;;;14.97;47.23;101028.16;5077732;27;45467;-61
2022/05/03 08:48:01;;;;;;;;;43.25;37.50;;;;;15.03;46.90;101028.72;5078007;27;45623;-61
2022/05/03 08:50:27;;;;;;;;;41.67;35.00;;;;;15.13;47.06;101031.81;5078554;27;45378;-61
2022/05/03 08:52:58;;;;;;;;;38.50;35.00;;;;;15.23;46.93;101021.59;5072831;27;46508;-60
2022/05/03 08:55:24;;;;;;;;;31.50;31.50;;;;;15.33;45.83;101032.63;5068088;28;45426;-61
2022/05/03 08:57:50;;;;;;;;;36.33;34.00;;;;;15.40;47.36;101020.81;5063841;28;45440;-61
2022/05/03 09:00:18;;;;;;;;;31.67;31.33;;;;;15.48;46.39;101023.09;5078689;27;45558;-61
2022/05/03 09:02:49;;;;;;;;;35.00;32.00;;;;;15.56;46.03;101016.47;5064906;27;45465;-61
2022/05/03 09:05:15;;;;;;;;;26.33;26.00;;;;;15.59;44.61;101026.94;5060032;28;45508;-61
2022/05/03 09:07:59;;;;;;;;;34.00;32.67;;;;;15.58;45.17;101035.81;5073002;28;45406;-61
2022/05/03 09:10:29;;;;;;;;;34.67;31.67;;;;;15.62;44.66;101034.72;5078834;28;45390;-61
2022/05/03 09:13:19;;;;;;;;;34.33;30.33;;;;;15.65;44.23;101023.09;5063318;28;45722;-62
2022/05/03 09:15:51;;;;;;;;;26.67;26.67;;;;;15.76;45.71;101028.75;5059886;28;45484;-62
2022/05/03 09:18:21;;;;;;;;;35.33;32.00;;;;;15.84;44.65;101023.94;5058855;28;45472;-62
2022/05/03 09:23:49;;;;;;;;;35.00;31.33;;;;;15.91;43.90;101032.47;5063832;28;45874;-60
2022/05/03 09:26:23;;;;;;;;;36.00;32.33;;;;;15.94;43.83;101034.94;5065709;28;45513;-62
2022/05/03 09:28:54;;;;;;;;;39.00;35.00;;;;;15.99;44.74;101038.22;5058204;28;45537;-62
2022/05/03 09:31:42;;;;;;;;;33.67;30.00;;;;;16.00;44.30;101029.31;5065571;28;45496;-62
2022/05/03 09:34:19;;;;;;;;;35.00;32.00;;;;;16.04;44.60;101030.91;5067214;28;45635;-62
2022/05/03 09:37:11;;;;;;;;;28.67;28.67;;;;;16.09;44.11;101031.53;5065005;28;45800;-60
2022/05/03 09:39:41;;;;;;;;;36.67;32.33;;;;;16.13;44.51;101022.44;5064304;27;45355;-60
2022/05/03 09:42:20;;;;;;;;;35.33;31.00;;;;;16.18;44.81;101021.38;5076785;27;45400;-61
2022/05/03 09:45:00;;;;;;;;;38.00;34.33;;;;;16.19;44.54;101017.75;5045680;28;47673;-61
2022/05/03 09:47:30;;;;;;;;;37.00;34.00;;;;;16.26;44.95;101017.38;5071512;28;45540;-62
2022/05/03 09:49:56;;;;;;;;;32.33;31.00;;;;;16.30;44.62;101005.63;5075674;28;45591;-62
2022/05/03 09:52:29;;;;;;;;;32.67;28.67;;;;;16.40;43.69;101011.31;5065027;28;45745;-61
2022/05/03 09:55:03;;;;;;;;;30.33;26.67;;;;;16.43;42.94;101012.97;5068080;28;45560;-64
2022/05/03 09:57:31;;;;;;;;;31.33;30.00;;;;;16.48;43.43;101017.09;5069418;28;45612;-61
2022/05/03 09:59:57;;;;;;;;;30.00;30.00;;;;;16.50;43.34;101014.38;5069966;28;45621;-61
2022/05/03 10:02:25;;;;;;;;;31.00;27.00;;;;;16.54;43.20;101014.09;5069430;27;45612;-61
2022/05/03 10:04:53;;;;;;;;;25.33;25.00;;;;;16.63;42.86;101014.53;5076646;28;45604;-63
2022/05/03 10:07:20;;;;;;;;;26.33;26.00;;;;;16.67;41.91;101010.78;5072118;28;45656;-62
2022/05/03 10:09:47;;;;;;;;;32.33;31.00;;;;;16.73;41.82;101005.13;5066344;28;45657;-62
2022/05/03 10:12:14;;;;;;;;;30.33;27.33;;;;;16.76;41.41;101019.13;5077464;27;45588;-61
2022/05/03 10:14:41;;;;;;;;;26.67;24.67;;;;;16.79;42.11;101007.47;5066041;27;46378;-61
2022/05/03 10:23:01;;;;;;;;;31.33;28.33;;;;;16.91;41.88;100998.84;5065395;28;46423;-62
2022/05/03 10:25:28;;;;;;;;;29.33;29.33;;;;;16.98;41.75;101007.34;5033503;28;46595;-61
2022/05/03 10:27:56;;;;;;;;;29.00;29.00;;;;;17.02;42.39;101000.91;5059263;27;45530;-62
2022/05/03 10:30:23;;;;;;;;;27.33;25.33;;;;;17.05;42.46;100999.88;5067000;27;45406;-61
2022/05/03 10:33:19;;;;;;;;;28.33;25.67;;;;;17.10;42.28;100997.81;5076629;27;45648;-62
2022/05/03 10:35:46;;;;;;;;;41.67;34.67;;;;;17.16;40.99;101005.44;5073750;27;46367;-63
2022/05/03 10:38:12;;;;;;;;;37.33;31.00;;;;;17.18;40.54;101012.38;5071236;27;45445;-62
2022/05/03 10:40:47;;;;;;;;;26.00;26.00;;;;;17.17;41.01;100992.09;5073483;27;45519;-61
2022/05/03 10:43:25;;;;;;;;;25.67;25.67;;;;;17.27;41.28;100999.53;5068861;27;45509;-63
2022/05/03 10:45:58;;;;;;;;;26.33;26.00;;;;;17.30;41.08;100994.91;5055534;28;47924;-61
2022/05/03 10:48:36;;;;;;;;;28.33;25.33;;;;;17.38;40.95;100994.44;5077199;27;45550;-62
2022/05/03 10:51:04;;;;;;;;;28.33;28.33;;;;;17.40;40.90;100988.09;5068913;27;45565;-60
2022/05/03 10:53:34;;;;;;;;;26.67;25.67;;;;;17.48;40.93;100989.47;5067284;27;45588;-62
2022/05/03 10:56:02;;;;;;;;;24.33;24.00;;;;;17.55;39.48;100990.84;5089825;27;46067;-62
2022/05/03 10:58:30;;;;;;;;;26.00;23.67;;;;;17.60;39.91;100999.41;5079670;27;45401;-61
2022/05/03 11:01:06;;;;;;;;;34.33;30.33;;;;;17.63;39.77;101000.06;5079138;27;45477;-63
2022/05/03 11:03:34;;;;;;;;;29.33;29.00;;;;;17.63;39.53;100988.56;5060282;28;45526;-62
2022/05/03 11:06:23;;;;;;;;;25.33;25.33;;;;;17.64;40.06;100991.13;5076561;27;46132;-62
2022/05/03 11:11:35;;;;;;;;;28.33;27.00;;;;;17.68;39.69;100983.84;5065369;28;45547;-62
2022/05/03 11:14:01;;;;;;;;;30.33;29.67;;;;;17.70;40.20;100976.59;5055217;28;45688;-62
2022/05/03 11:16:29;;;;;;;;;28.00;25.67;;;;;17.77;40.04;100979.78;5056773;28;46605;-63
2022/05/03 11:18:55;;;;;;;;;26.00;26.00;;;;;17.81;39.94;100976.00;5057906;28;45509;-63
2022/05/03 11:21:22;;;;;;;;;14.67;11.67;;;;;17.89;39.90;100976.41;5061212;28;45498;-62
2022/05/03 11:23:54;;;;;;;;;21.33;21.33;;;;;17.89;40.23;100968.41;5065911;28;45568;-62
2022/05/03 11:26:21;;;;;;;;;25.00;24.00;;;;;17.93;38.52;100979.75;5068145;28;46800;-60
2022/05/03 11:28:51;;;;;;;;;32.67;29.00;;;;;17.94;38.55;100976.13;5060842;28;45424;-61
2022/05/03 11:31:20;;;;;;;;;23.00;22.00;;;;;17.95;37.81;100967.22;5064087;28;45592;-62
2022/05/03 11:33:54;;;;;;;;;31.67;28.00;;;;;18.00;38.65;100958.00;5075845;28;45563;-61
2022/05/03 11:36:20;;;;;;;;;29.67;26.33;;;;;18.12;38.97;100964.38;5075372;28;46099;-61
2022/05/03 11:38:49;;;;;;;;;27.67;26.00;;;;;18.16;38.95;100959.72;5062584;27;45625;-61
2022/05/03 11:41:19;;;;;;;;;25.33;23.33;;;;;18.16;38.51;100962.38;5055791;28;45463;-62
2022/05/03 11:43:45;;;;;;;;;28.67;26.33;;;;;18.21;38.73;100958.47;5055619;28;45570;-61
2022/05/03 11:46:10;;;;;;;;;29.00;26.00;;;;;18.28;38.89;100964.28;5055051;28;46148;-61
2022/05/03 11:48:36;;;;;;;;;31.33;24.33;;;;;18.32;38.10;100956.03;5059144;27;45466;-61
2022/05/03 11:56:34;;;;;;;;;25.67;25.33;;;;;18.48;37.42;100955.94;5055439;28;45413;-62
2022/05/03 11:59:00;;;;;;;;;18.67;18.00;;;;;18.51;37.40;100950.41;5059786;28;45505;-62
2022/05/03 12:01:33;;;;;;;;;26.00;23.67;;;;;18.53;36.64;100945.81;5075752;28;45365;-62
2022/05/03 12:03:59;;;;;;;;;30.00;27.67;;;;;18.58;37.22;100948.19;5073844;28;45380;-62